Time;durP1;ratioP1;P1;durP2;ratioP2;P2;SDS_P1;SDS_P2;PMS_P1;PMS_P2;Temp;Humidity;BMP_temperature;BMP_pressure;BME280_temperature;BME280_humidity;BME280_pressure;Samples;Min_cycle;Max_cycle;Signal;HPM_P1;HPM_P2
2023/03/27 00:01:25;;;;;;;1.63;1.33;;;6.30;99.90;;;9.12;61.76;96552.97;5041592;28;20044;-45
2023/03/27 00:03:54;;;;;;;1.83;1.30;;;6.30;99.90;;;9.20;61.18;96552.91;5061359;28;20041;-46
2023/03/27 00:06:23;;;;;;;1.73;1.37;;;6.30;99.90;;;8.86;62.53;96562.13;5065152;28;20041;-44
2023/03/27 00:08:52;;;;;;;1.93;1.60;;;6.20;99.90;;;8.93;62.41;96567.56;5048762;28;20044;-45
2023/03/27 00:11:21;;;;;;;2.90;1.77;;;6.20;99.90;;;9.05;62.19;96582.91;5045926;28;20048;-45
2023/03/27 00:13:53;;;;;;;2.47;1.90;;;6.20;99.90;;;9.05;62.31;96574.94;5045014;28;20053;-43
2023/03/27 00:16:25;;;;;;;1.50;1.40;;;6.20;99.90;;;8.78;63.16;96586.91;5065165;28;20052;-45
2023/03/27 00:18:54;;;;;;;2.33;1.80;;;6.20;99.90;;;8.95;62.47;96586.78;5065880;28;20040;-46
2023/03/27 00:21:22;;;;;;;2.83;2.30;;;6.20;99.90;;;9.17;61.60;96593.94;5061753;28;20051;-45
2023/03/27 00:23:51;;;;;;;3.60;2.53;;;6.30;99.90;;;9.08;62.46;96600.28;5061453;28;20044;-46
2023/03/27 00:26:20;;;;;;;2.90;2.13;;;6.30;99.90;;;9.19;61.83;96599.03;5064254;28;20045;-44
2023/03/27 00:28:48;;;;;;;2.80;2.50;;;6.30;99.90;;;9.32;61.45;96607.22;5060626;28;20041;-46
2023/03/27 00:31:16;;;;;;;3.60;2.40;;;6.30;99.90;;;9.35;61.62;96619.34;5062269;28;20040;-44
2023/03/27 00:33:43;;;;;;;3.27;2.10;;;6.30;99.90;;;9.23;61.50;96618.94;5062383;28;20045;-47
2023/03/27 00:36:11;;;;;;;2.93;2.30;;;6.30;99.90;;;9.17;61.66;96624.94;5045283;28;20527;-45
2023/03/27 00:38:39;;;;;;;2.53;2.13;;;6.30;99.90;;;9.25;61.59;96643.50;5065291;28;20523;-44
2023/03/27 00:41:07;;;;;;;2.73;2.23;;;6.30;99.90;;;9.21;61.45;96636.88;5065374;28;20518;-47
2023/03/27 00:43:42;;;;;;;2.70;2.27;;;6.30;99.90;;;9.13;61.67;96643.09;5062338;28;20116;-46
2023/03/27 00:46:34;;;;;;;2.77;1.80;;;6.30;99.90;;;9.30;61.13;96643.78;5033808;28;20059;-47
2023/03/27 00:49:07;;;;;;;2.43;1.67;;;6.30;99.90;;;9.23;60.83;96645.50;5054803;28;20052;-48
2023/03/27 00:51:36;;;;;;;2.13;1.60;;;6.30;99.90;;;9.07;60.99;96655.22;5052676;28;20047;-45
2023/03/27 00:54:05;;;;;;;2.33;1.43;;;6.20;99.90;;;9.11;61.00;96663.69;5060166;28;20485;-45
2023/03/27 00:56:33;;;;;;;2.07;1.67;;;6.20;99.90;;;9.29;60.44;96670.53;5038772;28;20084;-46
2023/03/27 00:59:05;;;;;;;2.50;1.83;;;6.30;99.90;;;9.21;60.66;96669.56;5046562;28;20044;-45
2023/03/27 01:01:34;;;;;;;4.38;2.63;;;6.20;99.90;;;8.99;61.34;96683.66;5063723;28;20047;-47
2023/03/27 01:04:06;;;;;;;2.47;1.70;;;6.10;99.90;;;8.88;61.35;96674.25;5055324;28;20049;-49
2023/03/27 01:06:35;;;;;;;2.13;1.63;;;6.10;99.90;;;8.75;61.83;96687.25;5027742;28;20052;-45
2023/03/27 01:09:03;;;;;;;2.70;1.80;;;5.90;99.90;;;8.70;61.73;96684.28;5050318;28;20053;-45
2023/03/27 01:12:09;;;;;;;2.60;1.63;;;5.90;99.90;;;8.66;61.96;96692.59;5061880;28;20049;-43
2023/03/27 01:15:08;;;;;;;2.43;1.60;;;5.80;99.90;;;8.50;61.85;96700.63;5047974;28;20037;-45
2023/03/27 01:18:01;;;;;;;2.53;1.93;;;5.80;99.90;;;8.41;61.88;96709.56;5051744;28;20451;-48
2023/03/27 01:21:05;;;;;;;1.70;1.17;;;5.70;99.90;;;7.79;63.12;96718.97;5052708;28;20057;-49
2023/03/27 01:23:58;;;;;;;1.83;1.00;;;5.50;99.90;;;7.86;62.89;96719.13;5042720;28;20044;-46
2023/03/27 01:27:00;;;;;;;1.60;1.10;;;5.40;99.90;;;7.78;63.36;96735.84;5064596;28;20384;-46
2023/03/27 01:30:04;;;;;;;2.07;1.30;;;5.30;99.90;;;7.97;62.53;96737.34;5037107;28;20045;-46
2023/03/27 01:32:49;;;;;;;2.38;1.40;;;5.30;99.90;;;8.07;62.06;96745.09;5038349;28;20048;-45
2023/03/27 01:35:35;;;;;;;1.83;1.20;;;5.30;99.90;;;8.20;61.57;96741.91;5055225;28;20393;-43
2023/03/27 01:38:59;;;;;;;3.53;1.20;;;5.40;99.90;;;8.11;61.87;96750.91;5047043;28;20059;-43
2023/03/27 01:41:31;;;;;;;1.47;0.97;;;5.30;99.90;;;8.09;61.94;96764.31;5062639;28;20065;-47
2023/03/27 01:44:31;;;;;;;1.43;1.23;;;5.30;99.90;;;7.82;62.33;96771.63;5029640;28;20052;-47
2023/03/27 01:47:51;;;;;;;2.70;2.03;;;5.30;99.90;;;7.88;61.46;96775.44;5042595;28;20053;-48
2023/03/27 01:50:49;;;;;;;3.60;2.20;;;5.20;99.90;;;8.01;60.81;96781.06;5047112;28;20048;-47
2023/03/27 01:53:25;;;;;;;8.07;3.10;;;5.20;99.90;;;8.02;60.45;96793.31;5046168;28;20049;-45
2023/03/27 01:56:17;;;;;;;7.40;2.93;;;5.10;99.90;;;7.96;60.36;96793.16;5042358;28;20049;-45
2023/03/27 01:58:48;;;;;;;7.47;3.33;;;5.10;99.90;;;7.88;60.17;96800.09;5033145;28;20041;-43
2023/03/27 02:01:28;;;;;;;6.03;3.33;;;5.00;99.90;;;7.89;59.83;96809.72;5045001;28;20049;-46
2023/03/27 02:04:01;;;;;;;6.10;3.17;;;5.00;99.90;;;7.97;59.21;96810.69;5043917;28;20041;-45
2023/03/27 02:06:38;;;;;;;6.63;3.30;;;5.00;99.90;;;8.11;59.08;96820.66;5052164;28;20041;-44
2023/03/27 02:09:14;;;;;;;8.30;3.93;;;5.10;99.90;;;7.83;58.74;96820.97;5029931;28;20500;-46
2023/03/27 02:12:29;;;;;;;8.30;3.50;;;5.00;99.90;;;7.54;58.86;96821.44;5040017;28;20052;-45
2023/03/27 02:15:12;;;;;;;9.95;3.47;;;4.80;99.90;;;7.52;59.06;96836.63;4998402;28;20046;-48
2023/03/27 02:18:04;;;;;;;10.07;3.80;;;4.70;99.90;;;7.53;59.07;96843.59;5058561;28;20041;-45
2023/03/27 02:20:35;;;;;;;11.10;4.03;;;4.70;99.90;;;7.49;59.16;96863.44;5061437;28;20044;-47
2023/03/27 02:23:06;;;;;;;13.93;5.03;;;4.70;99.90;;;7.67;58.70;96861.50;5036874;28;20048;-48
2023/03/27 02:25:38;;;;;;;7.23;4.47;;;4.80;99.90;;;7.67;59.00;96866.81;5063401;28;20033;-45
2023/03/27 02:28:55;;;;;;;9.43;4.70;;;4.80;99.90;;;7.39;59.32;96866.25;5045901;28;20049;-46
2023/03/27 02:32:06;;;;;;;7.67;3.63;;;4.70;99.90;;;7.27;59.60;96871.00;5037005;28;20056;-44
2023/03/27 02:35:16;;;;;;;11.80;5.30;;;4.60;99.90;;;7.06;60.05;96883.81;5054297;28;20055;-45
2023/03/27 02:37:58;;;;;;;13.13;5.63;;;4.60;99.90;;;7.26;59.83;96892.31;5035359;28;20060;-45
2023/03/27 02:40:57;;;;;;;13.67;5.53;;;4.60;99.90;;;7.45;59.28;96904.50;5041763;28;20060;-48
2023/03/27 02:44:18;;;;;;;8.87;4.63;;;4.60;99.90;;;7.05;59.43;96901.47;4997352;28;20068;-47
2023/03/27 02:47:27;;;;;;;14.23;5.77;;;4.50;99.90;;;7.27;59.09;96905.41;5027936;28;20421;-45
2023/03/27 02:50:08;;;;;;;11.37;5.97;;;4.50;99.90;;;7.26;58.55;96913.50;5055494;28;20044;-47
2023/03/27 02:52:50;;;;;;;17.17;5.77;;;4.50;99.90;;;7.30;57.84;96917.50;5045866;28;20041;-48
2023/03/27 02:55:43;;;;;;;8.57;4.77;;;4.50;99.90;;;7.31;57.69;96927.13;5036875;28;20053;-46
2023/03/27 02:58:23;;;;;;;8.35;4.45;;;4.50;99.90;;;7.36;57.81;96935.41;5037697;28;20044;-44
2023/03/27 03:00:59;;;;;;;11.70;5.45;;;4.50;99.90;;;6.97;58.66;96943.78;5032758;28;20052;-47
2023/03/27 03:03:40;;;;;;;10.27;4.50;;;4.30;99.90;;;6.96;58.96;96951.88;5049485;28;20504;-46
2023/03/27 03:06:29;;;;;;;9.23;3.55;;;4.20;99.90;;;6.81;58.97;96960.38;4997653;28;20068;-45
2023/03/27 03:09:04;;;;;;;8.23;5.00;;;4.20;99.90;;;6.85;59.10;96956.44;5044342;28;20048;-43
2023/03/27 03:11:45;;;;;;;8.17;4.50;;;4.20;99.90;;;6.98;59.16;96963.13;5037647;28;20047;-46
2023/03/27 03:14:13;;;;;;;12.70;4.37;;;4.20;99.90;;;7.04;58.67;96968.66;5044778;28;20052;-43
2023/03/27 03:16:41;;;;;;;8.17;4.13;;;4.10;99.90;;;7.27;58.05;96973.44;5041647;28;20049;-46
2023/03/27 03:19:08;;;;;;;7.07;3.87;;;4.30;99.90;;;7.19;57.41;96982.16;5048449;28;20420;-47
2023/03/27 03:21:36;;;;;;;7.30;2.43;;;4.20;99.90;;;6.99;57.44;96981.50;5060067;28;20493;-43
2023/03/27 03:24:09;;;;;;;6.22;2.70;;;4.10;99.90;;;7.14;56.87;96995.00;5042488;28;20045;-44
2023/03/27 03:26:37;;;;;;;11.83;2.90;;;4.10;99.90;;;7.09;56.48;96997.28;5040945;28;20041;-45
2023/03/27 03:29:04;;;;;;;10.13;4.80;;;4.10;99.90;;;6.99;56.53;96993.91;5059308;28;20096;-47
2023/03/27 03:31:42;;;;;;;11.03;4.50;;;4.00;99.90;;;7.07;56.79;97002.72;5035985;28;20045;-48
2023/03/27 03:34:15;;;;;;;5.50;3.27;;;4.10;99.90;;;7.05;56.43;97028.53;5052795;28;20411;-44
2023/03/27 03:36:47;;;;;;;5.63;2.47;;;4.10;99.90;;;6.89;56.58;97025.75;5067254;28;20045;-48
2023/03/27 03:39:18;;;;;;;8.90;3.20;;;4.00;99.90;;;6.88;55.88;97024.09;5040263;28;20053;-47
2023/03/27 03:41:48;;;;;;;5.93;3.10;;;4.00;99.90;;;7.03;56.27;97045.56;5061119;28;20508;-46
2023/03/27 03:44:16;;;;;;;9.67;2.97;;;4.00;99.90;;;7.07;55.69;97044.25;5062050;28;20045;-43
2023/03/27 03:46:44;;;;;;;9.87;3.97;;;4.00;99.90;;;6.98;56.00;97055.75;5057503;28;20044;-48
2023/03/27 03:49:12;;;;;;;5.47;2.70;;;4.00;99.90;;;6.94;55.42;97062.34;5058974;28;20049;-45
2023/03/27 03:51:39;;;;;;;6.00;2.77;;;4.00;99.90;;;6.97;55.27;97072.63;5051513;28;20053;-46
2023/03/27 03:54:08;;;;;;;4.70;2.47;;;3.90;99.90;;;6.63;55.03;97073.31;5043751;28;20075;-43
2023/03/27 03:56:40;;;;;;;15.90;3.47;;;3.80;99.90;;;6.63;55.87;97079.44;5059837;28;20044;-44
2023/03/27 03:59:09;;;;;;;7.73;2.93;;;3.70;99.90;;;6.28;55.26;97102.22;5044659;28;20055;-46
2023/03/27 04:01:54;;;;;;;6.63;3.53;;;3.60;99.90;;;6.27;56.36;97105.00;5057330;28;20064;-44
2023/03/27 04:04:22;;;;;;;13.43;3.57;;;3.60;99.90;;;6.42;55.19;97113.28;5063083;28;20075;-50
2023/03/27 04:07:04;;;;;;;6.40;2.83;;;3.60;99.90;;;6.35;55.31;97118.31;5043886;28;20055;-45
2023/03/27 04:09:34;;;;;;;7.60;3.90;;;3.60;99.90;;;6.52;54.83;97140.47;5060097;28;20052;-45
2023/03/27 04:12:08;;;;;;;9.75;3.65;;;3.60;99.90;;;6.06;54.14;97129.84;5060707;28;20056;-45
2023/03/27 04:14:55;;;;;;;;;;;3.30;99.90;;;5.87;54.05;97151.88;5034656;28;20077;-45
2023/03/27 04:17:47;;;;;;;5.13;2.00;;;3.30;99.90;;;5.93;54.02;97158.38;5038876;28;19925;-43
2023/03/27 04:20:17;;;;;;;9.90;4.00;;;3.20;99.90;;;6.15;53.71;97166.97;5040609;28;20405;-44
2023/03/27 04:22:48;;;;;;;8.13;2.30;;;3.20;99.90;;;5.89;53.79;97172.84;5060695;28;20056;-47
2023/03/27 04:25:22;;;;;;;7.30;2.20;;;3.10;99.90;;;5.77;54.02;97174.81;5027236;28;20044;-47
2023/03/27 04:27:50;;;;;;;6.50;2.77;;;3.10;99.90;;;5.67;53.00;97180.13;5049882;28;20049;-48
2023/03/27 04:30:24;;;;;;;8.43;3.40;;;3.00;99.90;;;5.69;52.98;97196.66;5028117;28;20045;-45
2023/03/27 04:33:24;;;;;;;4.23;2.40;;;3.00;99.90;;;5.25;53.16;97211.28;5061765;28;20059;-46
2023/03/27 04:36:29;;;;;;;5.77;2.83;;;2.80;99.00;;;5.31;53.67;97216.84;5045515;28;20059;-43
2023/03/27 04:39:09;;;;;;;7.47;2.57;;;2.70;99.90;;;5.57;53.12;97211.00;5043466;28;20060;-47
2023/03/27 04:41:37;;;;;;;3.77;2.07;;;2.80;99.90;;;5.43;52.56;97235.16;5056797;28;20124;-47
2023/03/27 04:44:06;;;;;;;5.07;2.40;;;2.70;97.30;;;5.55;52.77;97231.44;5039869;28;20041;-48
2023/03/27 04:46:38;;;;;;;6.10;2.23;;;2.70;98.20;;;5.70;52.27;97245.88;5047618;28;20045;-43
2023/03/27 04:49:10;;;;;;;6.10;2.10;;;2.70;98.50;;;5.56;52.30;97246.28;5058178;28;20037;-44
2023/03/27 04:51:54;;;;;;;;;;;2.70;96.80;;;5.64;51.75;97251.72;5051480;28;20044;-47
2023/03/27 04:54:23;;;;;;;4.40;1.60;;;2.70;98.20;;;5.76;51.23;97260.34;5052967;28;20158;-46
2023/03/27 04:56:52;;;;;;;3.40;1.40;;;2.60;97.70;;;5.50;51.47;97267.97;5047014;28;20535;-45
2023/03/27 04:59:21;;;;;;;4.17;1.90;;;2.50;96.60;;;5.40;51.83;97285.63;5055238;28;20419;-48
2023/03/27 05:02:09;;;;;;;4.23;1.83;;;2.40;96.30;;;5.31;51.55;97272.28;5068687;28;20045;-44
2023/03/27 05:04:57;;;;;;;6.50;2.10;;;2.40;98.00;;;5.40;51.28;97289.09;5036743;28;20049;-48
2023/03/27 05:07:31;;;;;;;11.47;2.37;;;2.50;97.60;;;5.27;51.56;97291.16;5042560;28;20045;-47
2023/03/27 05:10:00;;;;;;;14.73;4.17;;;2.40;95.50;;;5.35;51.51;97301.03;5059898;28;20049;-43
2023/03/27 05:12:29;;;;;;;7.20;3.20;;;2.40;96.50;;;5.15;51.54;97298.34;5041833;28;20037;-43
2023/03/27 05:15:04;;;;;;;5.43;2.27;;;2.30;95.70;;;5.10;51.38;97306.69;5055776;28;20044;-43
2023/03/27 05:17:40;;;;;;;4.23;1.43;;;2.30;97.10;;;5.18;51.90;97310.47;5046882;28;20049;-47
2023/03/27 05:20:20;;;;;;;8.63;2.65;;;2.30;96.20;;;5.17;51.17;97314.88;5047442;28;20044;-45
2023/03/27 05:22:55;;;;;;;5.03;2.43;;;2.30;96.90;;;5.46;51.78;97329.94;5039349;28;20049;-45
2023/03/27 05:25:27;;;;;;;11.57;2.33;;;2.40;98.20;;;5.16;51.43;97338.75;5045226;28;20044;-45
2023/03/27 05:27:56;;;;;;;8.77;2.20;;;2.30;96.40;;;5.43;50.85;97352.19;5010645;28;20067;-46
2023/03/27 05:30:28;;;;;;;8.10;2.37;;;2.40;95.90;;;5.47;51.15;97345.66;5044190;28;20037;-46
2023/03/27 05:33:12;;;;;;;3.78;1.75;;;2.50;97.10;;;5.50;51.03;97357.75;5046214;28;20040;-46
2023/03/27 05:35:41;;;;;;;6.77;1.67;;;2.50;97.50;;;5.51;50.85;97375.28;5054436;28;20051;-44
2023/03/27 05:38:10;;;;;;;3.57;2.00;;;2.40;95.40;;;5.31;51.07;97377.00;5058673;28;20037;-46
2023/03/27 05:40:43;;;;;;;5.80;1.90;;;2.30;97.50;;;5.38;51.87;97375.50;5053248;28;20052;-47
2023/03/27 05:43:15;;;;;;;6.37;2.30;;;2.40;97.70;;;5.38;50.82;97385.25;5047201;28;20044;-44
2023/03/27 05:45:43;;;;;;;8.00;2.10;;;2.40;96.00;;;5.48;51.26;97394.03;5062003;28;20044;-43
2023/03/27 05:48:11;;;;;;;8.30;2.93;;;2.40;96.10;;;5.63;51.15;97400.59;5046359;28;20409;-44
2023/03/27 05:50:41;;;;;;;4.70;1.73;;;2.50;96.30;;;5.40;50.58;97399.97;5034983;28;20040;-45
2023/03/27 05:53:19;;;;;;;8.83;4.00;;;2.40;95.00;;;5.57;50.62;97398.50;5043668;28;20155;-44
2023/03/27 05:56:19;;;;;;;4.67;1.80;;;2.40;95.80;;;5.53;51.06;97405.84;5042377;28;20053;-43
2023/03/27 05:58:56;;;;;;;6.53;2.00;;;2.40;96.30;;;5.38;51.46;97409.00;5058848;28;20408;-42
2023/03/27 06:01:25;;;;;;;7.30;2.53;;;2.30;95.70;;;5.47;50.97;97410.84;5058748;28;20036;-43
2023/03/27 06:03:55;;;;;;;4.13;1.60;;;2.30;96.20;;;5.63;51.35;97407.69;5047646;28;20529;-43
2023/03/27 06:06:31;;;;;;;7.17;2.40;;;2.40;96.70;;;5.58;50.27;97416.00;5035286;28;20052;-43
2023/03/27 06:08:59;;;;;;;9.83;2.13;;;2.40;95.20;;;5.28;50.83;97430.09;5045275;28;20048;-42
2023/03/27 06:11:28;;;;;;;4.90;2.03;;;2.30;95.00;;;4.97;51.81;97448.56;5045784;28;20412;-43
2023/03/27 06:13:57;;;;;;;6.37;2.00;;;2.20;94.70;;;4.94;51.90;97440.91;5054430;28;20045;-41
2023/03/27 06:16:39;;;;;;;5.03;1.60;;;2.10;96.80;;;5.23;51.44;97448.13;5062133;28;20057;-43
2023/03/27 06:19:35;;;;;;;6.30;1.80;;;2.20;96.40;;;5.05;51.21;97461.94;5062340;28;20051;-45
2023/03/27 06:22:03;;;;;;;12.97;4.13;;;2.10;97.10;;;5.09;51.57;97462.50;5060300;28;20037;-47
2023/03/27 06:24:32;;;;;;;8.27;2.53;;;2.10;96.20;;;5.20;51.22;97470.34;5040559;28;20048;-43
2023/03/27 06:27:02;;;;;;;2.43;1.50;;;2.20;96.00;;;5.17;51.33;97477.69;5053732;28;20071;-42
2023/03/27 06:29:36;;;;;;;7.17;1.60;;;2.20;94.20;;;5.40;50.87;97481.00;5053628;28;20044;-46
2023/03/27 06:32:03;;;;;;;5.33;1.70;;;2.20;94.40;;;5.11;50.35;97506.25;5053801;28;20523;-42
2023/03/27 06:34:36;;;;;;;5.18;2.20;;;2.20;94.00;;;5.25;50.57;97497.19;5060731;28;20200;-43
2023/03/27 06:37:28;;;;;;;7.90;2.30;;;2.20;93.20;;;5.07;50.91;97504.84;5046286;28;20056;-43
2023/03/27 06:39:56;;;;;;;3.90;1.50;;;2.10;93.50;;;5.01;51.08;97508.00;5045083;28;20052;-45
2023/03/27 06:42:25;;;;;;;5.50;1.40;;;2.10;94.00;;;4.92;51.74;97512.28;5054172;28;20052;-44
2023/03/27 06:45:06;;;;;;;10.63;2.50;;;2.10;93.40;;;5.11;50.83;97518.63;5060714;28;20037;-44
2023/03/27 06:48:02;;;;;;;5.35;2.10;;;2.20;94.20;;;5.33;51.14;97518.47;5066232;28;20424;-41
2023/03/27 06:50:48;;;;;;;8.57;2.53;;;2.30;94.70;;;5.36;50.94;97530.56;5052315;28;20056;-43
2023/03/27 06:53:17;;;;;;;6.83;2.53;;;2.40;92.60;;;5.20;51.00;97540.78;5045428;28;20407;-43
2023/03/27 06:55:58;;;;;;;9.37;3.20;;;2.30;93.60;;;5.17;51.04;97538.38;5036551;28;20044;-42
2023/03/27 06:58:34;;;;;;;4.20;1.90;;;2.20;95.10;;;5.01;51.17;97549.41;5046060;28;20052;-43
2023/03/27 07:01:02;;;;;;;7.47;3.20;;;2.20;93.70;;;5.13;51.65;97556.28;5044986;28;20155;-45
2023/03/27 07:03:37;;;;;;;6.97;2.00;;;2.20;95.00;;;5.25;50.64;97551.75;5044029;28;20049;-44
2023/03/27 07:06:06;;;;;;;3.73;1.73;;;2.20;95.30;;;5.31;51.10;97569.72;5059773;28;20159;-45
2023/03/27 07:08:43;;;;;;;3.90;1.87;;;2.30;93.20;;;5.28;50.48;97572.63;5049977;28;20480;-44
2023/03/27 07:11:12;;;;;;;7.13;2.07;;;2.20;93.80;;;5.38;50.41;97583.25;5028474;28;20044;-47
2023/03/27 07:13:47;;;;;;;5.70;2.30;;;2.30;93.60;;;5.27;50.39;97585.00;5053066;28;20057;-47
2023/03/27 07:16:22;;;;;;;8.30;2.40;;;2.20;93.50;;;5.42;51.04;97587.31;5052792;28;20056;-44
2023/03/27 07:18:50;;;;;;;7.90;2.40;;;2.40;93.40;;;5.25;50.55;97586.94;5052522;28;20055;-43
2023/03/27 07:21:17;;;;;;;5.33;2.00;;;2.30;92.50;;;5.36;51.10;97586.00;5036555;28;20460;-43
2023/03/27 07:23:45;;;;;;;10.60;2.90;;;2.40;93.50;;;5.58;51.15;97594.75;5044881;28;20044;-46
2023/03/27 07:26:16;;;;;;;3.47;2.13;;;2.50;94.30;;;5.51;50.97;97602.38;5052802;28;20052;-45
2023/03/27 07:29:20;;;;;;;6.90;2.03;;;2.50;92.60;;;5.52;50.37;97601.38;5059080;28;20052;-46
2023/03/27 07:31:52;;;;;;;7.13;1.47;;;2.60;92.00;;;5.05;51.16;97601.78;5037488;28;20037;-47
2023/03/27 07:34:34;;;;;;;3.30;1.70;;;2.40;90.20;;;5.44;50.67;97598.56;5043927;28;20075;-48
2023/03/27 07:37:22;;;;;;;4.90;1.70;;;2.50;91.60;;;5.51;50.32;97608.47;5018215;28;20060;-45
2023/03/27 07:40:14;;;;;;;4.50;1.60;;;2.50;89.40;;;5.11;49.70;97614.47;5042676;28;20060;-48
2023/03/27 07:42:53;;;;;;;4.13;1.40;;;2.50;87.30;;;4.91;51.05;97626.69;5043730;28;20055;-46
2023/03/27 07:45:22;;;;;;;5.00;1.90;;;2.30;87.80;;;4.93;50.30;97627.38;5062425;28;20503;-46
2023/03/27 07:48:07;;;;;;;7.33;1.77;;;2.30;88.30;;;5.08;50.90;97627.09;5052756;28;20040;-47
2023/03/27 07:50:36;;;;;;;6.80;1.77;;;2.30;89.90;;;5.27;50.63;97626.38;5049648;28;20468;-44
2023/03/27 07:53:08;;;;;;;4.27;1.63;;;2.40;89.60;;;5.19;50.17;97642.03;5051708;28;20045;-47
2023/03/27 07:55:40;;;;;;;5.10;2.03;;;2.40;89.00;;;4.91;49.73;97645.13;5028132;28;20048;-45
2023/03/27 07:58:09;;;;;;;6.80;2.30;;;2.20;86.20;;;4.85;50.04;97661.47;5051924;28;20044;-42
2023/03/27 08:00:41;;;;;;;5.47;2.00;;;2.20;86.80;;;4.76;50.54;97670.13;5042692;28;20056;-44
2023/03/27 08:03:13;;;;;;;;;;;2.20;86.70;;;4.61;49.91;97668.72;5044226;28;20067;-47
2023/03/27 08:05:56;;;;;;;;;;;2.20;85.20;;;5.01;50.02;97673.41;5058742;28;19920;-46
2023/03/27 08:08:26;;;;;;;1.93;1.07;;;2.30;86.40;;;4.71;49.84;97703.94;5041535;28;19921;-43
2023/03/27 08:11:01;;;;;;;7.97;1.80;;;2.20;85.00;;;4.40;50.67;97689.72;5043924;28;20419;-43
2023/03/27 08:13:33;;;;;;;4.93;1.63;;;2.20;84.00;;;4.66;51.14;97688.50;5047106;28;20048;-44
2023/03/27 08:16:19;;;;;;;7.87;1.97;;;2.30;87.20;;;5.10;49.86;97702.53;5043774;28;20496;-43
2023/03/27 08:18:48;;;;;;;5.03;2.00;;;2.50;87.00;;;4.97;49.75;97703.66;5041042;28;20056;-47
2023/03/27 08:21:16;;;;;;;4.43;1.60;;;2.60;83.10;;;5.11;49.70;97709.47;5040232;28;20040;-44
2023/03/27 08:23:49;;;;;;;5.60;1.63;;;2.60;81.90;;;5.35;48.60;97699.66;5058690;28;20040;-44
2023/03/27 08:26:35;;;;;;;4.23;1.77;;;2.70;83.00;;;5.17;47.83;97692.28;5050903;28;20532;-48
2023/03/27 08:29:07;;;;;;;4.67;1.97;;;2.80;76.20;;;5.50;47.75;97711.59;5048997;28;20051;-46
2023/03/27 08:31:36;;;;;;;6.43;1.40;;;2.90;75.10;;;5.71;47.93;97708.97;5064301;28;20036;-42
2023/03/27 08:34:05;;;;;;;3.13;1.83;;;3.00;76.10;;;5.78;48.25;97709.28;5056737;28;20055;-44
2023/03/27 08:36:42;;;;;;;4.10;1.50;;;3.00;74.40;;;5.23;47.53;97702.34;5054638;28;20056;-43
2023/03/27 08:39:10;;;;;;;2.77;1.60;;;2.90;73.00;;;5.48;47.48;97718.81;5054029;28;20420;-45
2023/03/27 08:41:54;;;;;;;4.10;1.40;;;2.90;72.90;;;5.49;47.29;97726.59;5046112;28;20048;-46
2023/03/27 08:44:31;;;;;;;10.43;2.10;;;2.90;72.00;;;5.75;47.30;97726.22;5032398;28;20118;-44
2023/03/27 08:47:25;;;;;;;3.42;2.25;;;3.00;73.40;;;5.94;47.39;97735.25;5039717;28;20036;-43
2023/03/27 08:50:37;;;;;;;7.03;1.63;;;3.10;74.60;;;6.02;46.76;97738.13;5036105;28;20045;-45
2023/03/27 08:54:01;;;;;;;6.13;1.43;;;3.30;71.30;;;5.99;46.36;97746.28;5044029;28;20052;-45
2023/03/27 08:56:31;;;;;;;6.70;2.23;;;3.40;70.20;;;6.26;46.22;97748.38;5035899;28;20041;-42
2023/03/27 08:59:00;;;;;;;5.63;1.90;;;3.40;69.50;;;6.27;45.39;97747.44;5051927;28;20037;-44
2023/03/27 09:01:50;;;;;;;3.73;1.70;;;3.50;67.30;;;6.20;45.30;97755.03;5048354;28;20044;-45
2023/03/27 09:04:41;;;;;;;4.40;2.00;;;3.60;68.30;;;6.28;45.32;97760.53;5025032;28;20045;-43
2023/03/27 09:07:55;;;;;;;3.80;2.27;;;3.70;66.40;;;6.33;44.78;97768.06;5028573;28;20499;-45
2023/03/27 09:10:48;;;;;;;5.97;1.60;;;3.70;66.60;;;6.56;45.11;97763.44;5035820;28;20060;-41
2023/03/27 09:13:49;;;;;;;3.60;1.67;;;3.70;68.20;;;6.77;45.58;97767.84;5055619;28;20044;-47
2023/03/27 09:16:34;;;;;;;7.40;1.70;;;3.90;67.60;;;6.69;45.31;97765.84;5044970;28;20041;-48
2023/03/27 09:19:35;;;;;;;4.17;2.17;;;3.90;66.70;;;6.78;44.98;97772.97;5061714;28;20044;-45
2023/03/27 09:22:12;;;;;;;3.60;1.30;;;4.00;66.50;;;7.03;45.10;97769.00;5047880;28;20063;-45
2023/03/27 09:25:07;;;;;;;3.97;1.20;;;4.10;68.60;;;7.08;44.22;97784.50;5059590;28;20072;-45
2023/03/27 09:27:56;;;;;;;3.10;1.27;;;4.20;63.30;;;6.81;43.91;97778.00;5048452;28;20052;-48
2023/03/27 09:30:39;;;;;;;3.13;2.00;;;4.10;63.20;;;6.92;43.56;97789.44;5034633;28;20052;-44
2023/03/27 09:33:15;;;;;;;4.17;1.40;;;4.20;63.90;;;7.27;44.29;97784.53;5031593;28;20396;-46
2023/03/27 09:35:45;;;;;;;2.93;1.37;;;4.30;63.40;;;7.31;43.54;97779.81;5053841;28;20048;-45
2023/03/27 09:38:33;;;;;;;4.60;1.77;;;4.50;64.00;;;7.41;43.64;97785.13;5055266;28;20051;-46
2023/03/27 09:41:15;;;;;;;5.87;1.30;;;4.60;62.90;;;7.10;43.91;97787.84;5044626;28;20049;-45
2023/03/27 09:44:02;;;;;;;5.47;2.00;;;4.50;62.80;;;7.21;43.89;97789.53;5051933;28;20056;-44
2023/03/27 09:46:35;;;;;;;4.13;1.80;;;4.60;62.20;;;7.33;42.89;97799.03;5030880;28;20515;-42
2023/03/27 09:49:12;;;;;;;8.67;2.23;;;4.60;59.60;;;7.56;43.26;97799.63;5043854;28;20041;-43
2023/03/27 09:51:50;;;;;;;5.13;1.60;;;4.70;62.80;;;7.51;42.89;97804.50;5044191;28;20452;-43
2023/03/27 09:54:54;;;;;;;2.77;1.33;;;4.80;59.80;;;7.66;41.96;97803.13;5054342;28;20389;-44
2023/03/27 09:57:34;;;;;;;3.43;1.97;;;4.90;59.70;;;7.56;41.72;97801.41;5046830;28;20071;-43
2023/03/27 10:00:32;;;;;;;3.60;1.60;;;4.80;58.30;;;7.58;41.14;97813.56;5061009;28;20041;-43
2023/03/27 10:03:16;;;;;;;4.33;1.80;;;4.90;57.70;;;7.83;41.35;97806.88;5053827;28;20044;-46
2023/03/27 10:06:06;;;;;;;5.87;2.03;;;4.90;57.10;;;7.79;40.52;97812.59;5054133;28;20048;-49
2023/03/27 10:08:50;;;;;;;6.53;1.83;;;5.00;54.60;;;7.41;38.77;97825.69;5053852;28;20040;-44
2023/03/27 10:11:30;;;;;;;3.17;1.13;;;4.60;51.00;;;7.59;39.11;97827.66;5045790;28;20047;-44
2023/03/27 10:14:18;;;;;;;8.77;2.30;;;4.60;52.30;;;7.55;40.20;97819.13;5050608;28;20044;-45
2023/03/27 10:16:46;;;;;;;5.63;1.88;;;4.70;54.90;;;7.85;40.84;97818.19;5043697;28;20048;-45
2023/03/27 10:19:35;;;;;;;5.37;2.73;;;5.00;56.60;;;8.19;41.33;97815.06;5037919;28;20512;-41
2023/03/27 10:22:30;;;;;;;10.03;1.93;;;5.30;57.90;;;8.25;40.17;97822.47;5052130;28;20099;-45
2023/03/27 10:25:01;;;;;;;8.00;2.33;;;5.40;56.00;;;8.21;40.51;97830.84;5049915;28;20052;-49
2023/03/27 10:27:47;;;;;;;6.10;2.20;;;5.30;57.30;;;8.21;40.37;97833.50;5045865;28;20415;-41
2023/03/27 10:30:36;;;;;;;5.47;2.03;;;5.20;55.30;;;7.81;38.96;97839.78;5044718;28;20533;-43
2023/03/27 10:33:38;;;;;;;8.03;1.77;;;4.80;52.30;;;7.24;38.21;97843.06;5050679;28;20049;-43
2023/03/27 10:36:20;;;;;;;;;;;4.60;51.10;;;7.24;38.86;97837.75;5049405;28;20055;-48
2023/03/27 10:38:59;;;;;;;6.03;1.80;;;4.60;52.30;;;7.73;39.79;97840.47;5048397;28;20292;-43
2023/03/27 10:41:41;;;;;;;3.70;1.80;;;4.80;55.00;;;7.56;39.74;97841.16;5048087;28;20064;-45
2023/03/27 10:44:20;;;;;;;4.40;1.47;;;4.90;54.60;;;7.52;38.33;97845.06;5046268;28;20051;-48
2023/03/27 10:46:55;;;;;;;5.10;2.83;;;4.90;51.70;;;7.65;38.71;97841.16;5043671;28;20609;-43
2023/03/27 10:49:43;;;;;;;6.87;1.57;;;4.80;52.20;;;7.71;38.20;97846.91;5028349;28;20044;-43
2023/03/27 10:52:52;;;;;;;4.03;1.40;;;4.90;50.90;;;7.96;38.60;97840.22;5050344;28;20044;-43
2023/03/27 10:55:47;;;;;;;6.27;3.13;;;5.20;50.90;;;8.11;37.62;97846.78;5045566;28;20052;-44
2023/03/27 10:58:50;;;;;;;6.67;1.60;;;5.40;48.40;;;8.37;38.60;97841.69;5068005;28;20052;-42
2023/03/27 11:01:34;;;;;;;8.53;1.87;;;5.50;52.10;;;8.39;38.35;97847.69;5036339;28;20048;-41
2023/03/27 11:04:20;;;;;;;3.40;2.43;;;5.70;52.70;;;8.30;38.89;97859.19;5053997;28;20067;-41
2023/03/27 11:06:56;;;;;;;6.17;1.50;;;5.50;52.70;;;8.59;38.61;97858.34;5045271;28;20048;-40
2023/03/27 11:09:35;;;;;;;8.10;2.27;;;5.60;52.70;;;8.54;37.44;97855.25;5028749;28;20041;-42
2023/03/27 11:12:15;;;;;;;3.93;1.67;;;5.60;49.20;;;8.60;37.32;97855.50;5018694;28;20048;-45
2023/03/27 11:15:01;;;;;;;3.63;1.50;;;5.60;50.00;;;8.50;36.72;97856.53;5036868;28;20056;-41
2023/03/27 11:18:01;;;;;;;4.33;2.27;;;5.50;49.30;;;8.38;37.13;97858.47;5053899;28;20638;-44
2023/03/27 11:20:49;;;;;;;3.77;1.43;;;5.50;50.50;;;8.46;37.88;97858.63;5033989;28;20507;-43
2023/03/27 11:23:37;;;;;;;3.17;1.70;;;5.50;52.00;;;8.29;38.72;97866.28;5036610;28;20057;-41
2023/03/27 11:26:18;;;;;;;3.70;1.53;;;5.60;53.80;;;8.36;39.16;97861.25;5050203;28;20048;-43